createdAt,value
2023-03-05T00:00:44.707Z,54.13
2023-03-05T00:03:15.099Z,54.27
2023-03-05T00:05:45.376Z,54.22
2023-03-05T00:08:15.419Z,54.39
2023-03-05T00:10:45.255Z,54.06
2023-03-05T00:13:15.244Z,54.22
2023-03-05T00:15:45.424Z,54.48
2023-03-05T00:18:15.751Z,54.46
2023-03-05T00:20:47.031Z,54.67
2023-03-05T00:23:17.653Z,54.52
2023-03-05T00:25:48.914Z,54.49
2023-03-05T00:28:18.999Z,54.46
2023-03-05T00:30:48.965Z,54.26
2023-03-05T00:33:18.959Z,54.20
2023-03-05T00:35:49.532Z,54.24
2023-03-05T00:38:19.614Z,53.94
2023-03-05T00:40:52.820Z,54.12
2023-03-05T00:43:22.848Z,54.17
2023-03-05T00:45:52.791Z,54.09
2023-03-05T00:48:24.581Z,54.13
2023-03-05T00:50:55.295Z,53.92
2023-03-05T00:53:25.783Z,53.90
2023-03-05T00:55:55.963Z,53.86
2023-03-05T00:58:26.084Z,53.86
2023-03-05T01:00:59.400Z,53.59
2023-03-05T01:03:30.823Z,53.52
2023-03-05T01:06:01.909Z,53.63
2023-03-05T01:08:32.158Z,53.40
2023-03-05T01:11:02.091Z,53.71
2023-03-05T01:13:32.120Z,53.60
2023-03-05T01:16:02.925Z,53.62
2023-03-05T01:18:33.251Z,53.30
2023-03-05T01:21:03.507Z,53.22
2023-03-05T01:23:33.578Z,53.16
2023-03-05T01:26:03.693Z,53.31
2023-03-05T01:28:34.841Z,53.12
2023-03-05T01:31:04.904Z,53.07
2023-03-05T01:33:34.787Z,52.81
2023-03-05T01:36:04.955Z,52.92
2023-03-05T01:38:34.968Z,52.62
2023-03-05T01:41:04.833Z,52.50
2023-03-05T01:43:35.304Z,52.50
2023-03-05T01:46:33.729Z,52.75
2023-03-05T01:49:06.002Z,52.35
2023-03-05T01:51:45.283Z,52.39
2023-03-05T01:54:17.714Z,52.36
2023-03-05T01:56:51.345Z,52.22
2023-03-05T01:59:22.137Z,51.90
2023-03-05T02:01:56.248Z,51.77
2023-03-05T02:04:34.240Z,51.75
2023-03-05T02:07:04.924Z,51.78
2023-03-05T02:09:35.033Z,51.75
2023-03-05T02:12:04.933Z,51.86
2023-03-05T02:14:36.080Z,51.51
2023-03-05T02:17:08.013Z,51.41
2023-03-05T02:19:58.827Z,51.49
2023-03-05T02:22:28.856Z,51.39
2023-03-05T02:24:58.786Z,51.38
2023-03-05T02:27:39.064Z,51.21
2023-03-05T02:30:09.801Z,51.42
2023-03-05T02:32:39.937Z,51.35
2023-03-05T02:35:11.410Z,50.90
2023-03-05T02:37:42.242Z,51.07
2023-03-05T02:40:14.637Z,51.13
2023-03-05T02:42:45.511Z,50.60
2023-03-05T02:45:17.407Z,50.56
2023-03-05T02:47:47.579Z,50.80
2023-03-05T02:50:18.262Z,51.15
2023-03-05T02:52:48.295Z,50.88
2023-03-05T02:55:19.612Z,51.02
2023-03-05T02:57:49.988Z,51.24
2023-03-05T03:00:20.567Z,51.03
2023-03-05T03:02:50.712Z,50.95
2023-03-05T03:05:20.847Z,50.95
2023-03-05T03:07:52.101Z,50.62
2023-03-05T03:10:22.210Z,50.16
2023-03-05T03:12:52.130Z,50.81
2023-03-05T03:15:22.383Z,50.84
2023-03-05T03:17:52.471Z,51.11
2023-03-05T03:20:23.007Z,50.94
2023-03-05T03:22:53.687Z,50.70
2023-03-05T03:25:25.246Z,50.18
2023-03-05T03:27:55.317Z,50.19
2023-03-05T03:30:25.285Z,50.01
2023-03-05T03:32:55.987Z,50.04
2023-03-05T03:35:26.192Z,50.55
2023-03-05T03:37:56.304Z,50.21
2023-03-05T03:40:26.510Z,50.23
2023-03-05T03:42:56.769Z,50.22
2023-03-05T03:45:27.681Z,49.94
2023-03-05T03:47:57.746Z,49.66
2023-03-05T03:50:28.343Z,49.79
2023-03-05T03:52:58.453Z,49.36
2023-03-05T03:55:28.323Z,49.72
2023-03-05T03:57:58.410Z,50.06
2023-03-05T04:00:28.316Z,50.13
2023-03-05T04:02:58.221Z,49.87
2023-03-05T04:05:28.367Z,49.91
2023-03-05T04:08:00.550Z,49.87
2023-03-05T04:10:30.418Z,49.88
2023-03-05T04:13:00.374Z,49.48
2023-03-05T04:15:32.678Z,49.29
2023-03-05T04:18:02.964Z,48.83
2023-03-05T04:20:33.101Z,48.82
2023-03-05T04:23:02.948Z,48.51
2023-03-05T04:25:32.996Z,48.60
2023-03-05T04:28:02.896Z,49.04
2023-03-05T04:30:33.641Z,48.63
2023-03-05T04:33:03.661Z,48.47
2023-03-05T04:35:33.988Z,48.41
2023-03-05T04:38:04.000Z,48.46
2023-03-05T04:40:34.234Z,48.45
2023-03-05T04:43:04.377Z,48.54
2023-03-05T04:45:34.566Z,48.23
2023-03-05T04:48:04.630Z,47.94
2023-03-05T04:50:34.549Z,47.82
2023-03-05T04:53:05.242Z,48.26
2023-03-05T04:55:35.401Z,48.44
2023-03-05T04:58:05.627Z,48.27
2023-03-05T05:00:35.621Z,48.33
2023-03-05T05:03:05.800Z,48.33
2023-03-05T05:05:36.406Z,48.14
2023-03-05T05:08:06.511Z,48.49
2023-03-05T05:10:36.560Z,48.22
2023-03-05T05:13:06.454Z,48.20
2023-03-05T05:15:36.436Z,48.28
2023-03-05T05:18:06.430Z,48.45
2023-03-05T05:20:36.330Z,48.24
2023-03-05T05:23:06.254Z,48.38
2023-03-05T05:25:36.220Z,48.41
2023-03-05T05:28:06.302Z,48.13
2023-03-05T05:30:36.241Z,48.05
2023-03-05T05:33:06.205Z,48.09
2023-03-05T05:35:37.129Z,48.09
2023-03-05T05:38:07.179Z,48.12
2023-03-05T05:40:37.234Z,47.98
2023-03-05T05:43:07.437Z,47.83
2023-03-05T05:45:40.336Z,48.13
2023-03-05T05:48:10.679Z,47.63
2023-03-05T05:50:41.547Z,47.86
2023-03-05T05:53:11.587Z,47.94
2023-03-05T05:55:43.444Z,47.73
2023-03-05T05:58:13.741Z,48.03
2023-03-05T06:00:43.849Z,47.93
2023-03-05T06:03:13.750Z,47.93
2023-03-05T06:05:45.398Z,47.76
2023-03-05T06:08:15.586Z,47.49
2023-03-05T06:10:45.456Z,47.94
2023-03-05T06:13:15.364Z,47.62
2023-03-05T06:15:45.250Z,47.57
2023-03-05T06:18:15.195Z,47.83
2023-03-05T06:20:45.091Z,47.70
2023-03-05T06:23:14.894Z,47.44
2023-03-05T06:25:44.779Z,47.71
2023-03-05T06:28:14.720Z,47.64
2023-03-05T06:30:45.002Z,47.53
2023-03-05T06:33:15.440Z,47.63
2023-03-05T06:35:45.500Z,47.83
2023-03-05T06:38:15.361Z,47.88
2023-03-05T06:40:45.245Z,47.99
2023-03-05T06:43:15.165Z,47.78
2023-03-05T06:45:45.073Z,47.27
2023-03-05T06:48:15.080Z,47.48
2023-03-05T06:50:45.064Z,47.55
2023-03-05T06:53:14.941Z,47.79
2023-03-05T06:55:44.795Z,47.54
2023-03-05T06:58:14.881Z,47.42
2023-03-05T07:00:46.716Z,47.55
2023-03-05T07:03:17.101Z,47.78
2023-03-05T07:05:47.174Z,47.37
2023-03-05T07:08:17.066Z,47.54
2023-03-05T07:10:47.043Z,47.68
2023-03-05T07:13:16.884Z,47.20
2023-03-05T07:15:46.855Z,47.13
2023-03-05T07:18:16.753Z,47.63
2023-03-05T07:20:46.634Z,47.53
2023-03-05T07:23:16.510Z,47.57
2023-03-05T07:25:46.324Z,47.78
2023-03-05T07:28:17.020Z,47.44
2023-03-05T07:30:47.047Z,47.57
2023-03-05T07:33:17.317Z,47.45
2023-03-05T07:35:47.181Z,47.38
2023-03-05T07:38:17.158Z,47.27
2023-03-05T07:40:47.143Z,47.11
2023-03-05T07:43:17.506Z,47.20
2023-03-05T07:45:49.105Z,47.34
2023-03-05T07:48:20.409Z,46.99
2023-03-05T07:50:51.358Z,46.99
2023-03-05T07:53:21.390Z,47.02
2023-03-05T07:55:51.268Z,46.59
2023-03-05T07:58:22.554Z,46.95
2023-03-05T08:00:52.304Z,47.03
2023-03-05T08:03:22.287Z,46.82
2023-03-05T08:05:52.267Z,46.92
2023-03-05T08:08:22.243Z,47.01
2023-03-05T08:10:52.329Z,46.98
2023-03-05T08:13:22.206Z,46.91
2023-03-05T08:15:52.281Z,47.30
2023-03-05T08:18:22.210Z,47.12
2023-03-05T08:20:52.140Z,46.44
2023-03-05T08:23:22.067Z,46.62
2023-03-05T08:25:51.996Z,46.46
2023-03-05T08:28:22.016Z,46.90
2023-03-05T08:30:52.315Z,46.81
2023-03-05T08:33:22.888Z,46.69
2023-03-05T08:35:52.911Z,46.54
2023-03-05T08:38:23.228Z,46.68
2023-03-05T08:40:53.224Z,46.73
2023-03-05T08:43:23.109Z,46.81
2023-03-05T08:45:53.826Z,46.83
2023-03-05T08:48:23.913Z,46.79
2023-03-05T08:50:53.724Z,46.64
2023-03-05T08:53:24.216Z,46.62
2023-03-05T08:55:58.114Z,46.66
2023-03-05T08:58:29.057Z,46.73
2023-03-05T09:00:59.470Z,46.51
2023-03-05T09:03:30.137Z,46.78
2023-03-05T09:06:05.363Z,46.79
2023-03-05T09:08:35.969Z,46.23
2023-03-05T09:11:08.503Z,46.76
2023-03-05T09:13:39.040Z,46.82
2023-03-05T09:16:11.730Z,46.86
2023-03-05T09:18:42.916Z,46.85
2023-03-05T09:21:19.599Z,46.77
2023-03-05T09:23:50.007Z,46.85
2023-03-05T09:26:24.085Z,46.77
2023-03-05T09:28:54.370Z,46.82
2023-03-05T09:31:25.449Z,46.84
2023-03-05T09:33:55.289Z,46.87
2023-03-05T09:36:29.008Z,46.89
2023-03-05T09:38:59.478Z,47.20
2023-03-05T09:41:39.430Z,47.11
2023-03-05T09:44:30.528Z,47.33
2023-03-05T09:47:13.298Z,46.93
2023-03-05T09:50:15.949Z,47.46
2023-03-05T09:52:57.227Z,47.62
2023-03-05T09:55:50.694Z,47.38
2023-03-05T09:58:35.702Z,47.43
2023-03-05T10:01:18.135Z,47.54
2023-03-05T10:03:57.356Z,47.58
2023-03-05T10:06:40.846Z,47.69
2023-03-05T10:09:13.707Z,47.81
2023-03-05T10:11:59.090Z,47.86
2023-03-05T10:14:32.770Z,47.73
2023-03-05T10:17:24.795Z,48.21
2023-03-05T10:20:23.912Z,48.01
2023-03-05T10:23:19.367Z,48.34
2023-03-05T10:25:55.672Z,48.25
2023-03-05T10:28:55.014Z,47.99
2023-03-05T10:31:47.647Z,48.23
2023-03-05T10:34:43.137Z,48.28
2023-03-05T10:37:21.916Z,48.45
2023-03-05T10:40:01.972Z,48.49
2023-03-05T10:42:49.102Z,48.54
2023-03-05T10:45:58.804Z,48.61
2023-03-05T10:48:38.013Z,48.70
2023-03-05T10:51:08.115Z,48.80
2023-03-05T10:53:58.641Z,48.72
2023-03-05T10:56:31.167Z,49.08
2023-03-05T10:59:01.563Z,49.09
2023-03-05T11:01:33.928Z,49.23
2023-03-05T11:04:08.447Z,49.10
2023-03-05T11:06:44.434Z,49.26
2023-03-05T11:09:34.918Z,48.98
2023-03-05T11:12:20.288Z,49.08
2023-03-05T11:15:07.862Z,49.43
2023-03-05T11:17:53.249Z,49.32
2023-03-05T11:20:29.225Z,49.37
2023-03-05T11:23:22.051Z,49.00
2023-03-05T11:26:04.194Z,48.81
2023-03-05T11:28:40.651Z,49.04
2023-03-05T11:31:36.075Z,48.99
2023-03-05T11:34:10.595Z,49.13
2023-03-05T11:36:46.714Z,49.30
2023-03-05T11:39:23.210Z,49.50
2023-03-05T11:42:01.287Z,49.28
2023-03-05T11:44:52.944Z,49.69
2023-03-05T11:47:48.109Z,49.12
2023-03-05T11:50:24.277Z,49.74
2023-03-05T11:53:15.305Z,49.29
2023-03-05T11:55:51.134Z,49.85
2023-03-05T11:58:28.150Z,49.67
2023-03-05T12:00:59.305Z,49.84
2023-03-05T12:03:35.427Z,50.03
2023-03-05T12:06:12.857Z,49.97
2023-03-05T12:08:47.291Z,49.75
2023-03-05T12:11:36.929Z,49.74
2023-03-05T12:14:18.579Z,49.89
2023-03-05T12:16:56.846Z,50.15
2023-03-05T12:21:17.402Z,50.11
2023-03-05T12:23:51.950Z,49.94
2023-03-05T12:27:01.712Z,49.98
2023-03-05T12:29:51.690Z,50.40
2023-03-05T12:32:27.928Z,50.20
2023-03-05T12:35:08.510Z,50.42
2023-03-05T12:37:38.643Z,50.34
2023-03-05T12:40:20.905Z,50.47
2023-03-05T12:43:05.422Z,50.25
2023-03-05T12:45:47.249Z,50.71
2023-03-05T12:48:17.472Z,50.57
2023-03-05T12:50:47.694Z,50.83
2023-03-05T12:53:20.628Z,50.73
2023-03-05T12:56:02.881Z,50.88
2023-03-05T12:58:46.588Z,50.83
2023-03-05T13:01:43.625Z,50.39
2023-03-05T13:04:26.081Z,50.24
2023-03-05T13:07:08.367Z,49.66
2023-03-05T13:09:38.675Z,49.91
2023-03-05T13:12:29.315Z,50.10
2023-03-05T13:15:11.705Z,50.21
2023-03-05T13:18:05.757Z,50.54
2023-03-05T13:20:44.950Z,50.22
2023-03-05T13:23:30.270Z,50.89
2023-03-05T13:26:06.363Z,50.71
2023-03-05T13:28:36.646Z,50.53
2023-03-05T13:31:20.646Z,50.80
2023-03-05T13:34:12.823Z,50.84
2023-03-05T13:36:50.253Z,51.00
2023-03-05T13:39:31.008Z,50.79
2023-03-05T13:42:06.862Z,51.06
2023-03-05T13:44:40.161Z,50.98
2023-03-05T13:47:11.559Z,50.95
2023-03-05T13:49:41.717Z,51.06
2023-03-05T13:52:15.815Z,51.10
2023-03-05T13:57:39.356Z,51.35
2023-03-05T14:00:27.771Z,51.60
2023-03-05T14:03:00.602Z,51.58
2023-03-05T14:05:33.636Z,51.65
2023-03-05T14:08:04.107Z,51.65
2023-03-05T14:10:40.480Z,51.65
2023-03-05T14:13:21.992Z,51.82
2023-03-05T14:16:10.087Z,51.69
2023-03-05T14:18:40.604Z,51.68
2023-03-05T14:21:16.373Z,51.63
2023-03-05T14:23:50.028Z,52.12
2023-03-05T14:26:29.323Z,51.88
2023-03-05T14:29:24.924Z,51.95
2023-03-05T14:32:00.277Z,51.99
2023-03-05T14:34:33.279Z,51.84
2023-03-05T14:43:04.125Z,51.75
2023-03-05T14:45:39.886Z,51.64
2023-03-05T14:48:11.197Z,51.86
2023-03-05T14:50:47.658Z,51.73
2023-03-05T14:53:26.767Z,52.05
2023-03-05T14:56:02.027Z,52.16
2023-03-05T14:58:40.850Z,52.17
2023-03-05T15:01:16.633Z,52.13
2023-03-05T15:03:47.345Z,52.53
2023-03-05T15:06:32.829Z,52.30
2023-03-05T15:09:06.761Z,52.34
2023-03-05T15:11:36.995Z,52.80
2023-03-05T15:14:07.287Z,52.35
2023-03-05T15:16:42.056Z,52.43
2023-03-05T15:19:17.036Z,52.67
2023-03-05T15:21:51.588Z,52.67
2023-03-05T15:24:21.728Z,53.26
2023-03-05T15:26:51.876Z,53.32
2023-03-05T15:29:22.127Z,52.53
2023-03-05T15:31:58.997Z,52.96
2023-03-05T15:34:29.703Z,52.49
2023-03-05T15:36:59.929Z,52.41
2023-03-05T15:39:29.999Z,52.64
2023-03-05T15:42:00.452Z,52.34
2023-03-05T15:44:30.804Z,52.15
2023-03-05T15:47:06.747Z,52.24
2023-03-05T15:49:37.061Z,52.30
2023-03-05T15:52:10.124Z,53.02
2023-03-05T15:54:40.456Z,53.26
2023-03-05T15:57:15.353Z,53.00
2023-03-05T15:59:48.365Z,53.30
2023-03-05T16:02:18.679Z,53.42
2023-03-05T16:04:48.763Z,53.49
2023-03-05T16:07:19.791Z,53.62
2023-03-05T16:09:54.585Z,53.38
2023-03-05T16:12:30.277Z,53.40
2023-03-05T16:15:00.584Z,53.45
2023-03-05T16:17:35.898Z,53.52
2023-03-05T16:20:08.035Z,53.66
2023-03-05T16:22:38.279Z,53.32
2023-03-05T16:25:09.547Z,53.68
2023-03-05T16:27:42.132Z,53.96
2023-03-05T16:30:14.548Z,53.85
2023-03-05T16:32:47.819Z,53.38
2023-03-05T16:35:21.407Z,53.60
2023-03-05T16:37:56.710Z,53.51
2023-03-05T16:40:38.703Z,53.76
2023-03-05T16:43:19.714Z,53.61
2023-03-05T16:45:49.878Z,53.72
2023-03-05T16:48:19.993Z,53.50
2023-03-05T16:50:50.147Z,53.71
2023-03-05T16:53:20.231Z,53.27
2023-03-05T16:55:50.300Z,53.57
2023-03-05T16:58:24.837Z,53.33
2023-03-05T17:00:55.071Z,53.42
2023-03-05T17:03:25.764Z,53.73
2023-03-05T17:05:56.740Z,53.49
2023-03-05T17:08:29.858Z,53.44
2023-03-05T17:11:00.319Z,53.79
2023-03-05T17:13:30.599Z,53.56
2023-03-05T17:16:00.908Z,53.37
2023-03-05T17:18:31.487Z,53.84
2023-03-05T17:21:04.486Z,54.03
2023-03-05T17:23:37.558Z,54.10
2023-03-05T17:26:15.597Z,54.29
2023-03-05T17:28:46.729Z,54.49
2023-03-05T17:31:18.493Z,54.39
2023-03-05T17:33:48.614Z,54.32
2023-03-05T17:36:24.408Z,54.17
2023-03-05T17:38:55.530Z,54.47
2023-03-05T17:41:26.076Z,54.41
2023-03-05T17:43:58.161Z,54.52
2023-03-05T17:46:28.312Z,54.73
2023-03-05T17:49:00.132Z,54.59
2023-03-05T17:51:30.418Z,54.64
2023-03-05T17:54:01.065Z,54.59
2023-03-05T17:56:31.220Z,54.71
2023-03-05T17:59:01.638Z,54.59
2023-03-05T18:01:35.066Z,54.39
2023-03-05T18:04:09.397Z,54.75
2023-03-05T18:06:40.116Z,54.66
2023-03-05T18:09:10.275Z,55.09
2023-03-05T18:11:40.683Z,54.96
2023-03-05T18:14:13.439Z,55.52
2023-03-05T18:16:44.825Z,55.24
2023-03-05T18:19:14.961Z,55.41
2023-03-05T18:21:45.381Z,55.18
2023-03-05T18:24:16.006Z,55.16
2023-03-05T18:26:46.193Z,55.38
2023-03-05T18:29:18.632Z,55.54
2023-03-05T18:31:49.017Z,55.24
2023-03-05T18:34:20.202Z,55.35
2023-03-05T18:36:53.532Z,55.45
2023-03-05T18:39:23.907Z,55.39
2023-03-05T18:42:13.017Z,55.45
2023-03-05T18:45:40.879Z,55.75
2023-03-05T18:48:11.085Z,55.78
2023-03-05T18:50:41.220Z,55.45
2023-03-05T18:53:11.347Z,55.59
2023-03-05T18:55:44.430Z,55.78
2023-03-05T18:58:18.045Z,55.59
2023-03-05T19:00:49.286Z,55.57
2023-03-05T19:03:22.815Z,55.45
2023-03-05T19:05:53.564Z,55.25
2023-03-05T19:08:24.546Z,55.57
2023-03-05T19:10:54.648Z,55.19
2023-03-05T19:13:47.984Z,55.33
2023-03-05T19:16:22.128Z,55.43
2023-03-05T19:19:27.450Z,55.23
2023-03-05T19:22:02.270Z,55.33
2023-03-05T19:24:33.670Z,55.14
2023-03-05T19:27:12.161Z,55.01
2023-03-05T19:29:44.694Z,54.93
2023-03-05T19:32:18.165Z,54.96
2023-03-05T19:34:48.284Z,54.90
2023-03-05T19:37:18.482Z,54.97
2023-03-05T19:39:48.546Z,54.70
2023-03-05T19:42:18.611Z,54.74
2023-03-05T19:44:48.652Z,54.85
2023-03-05T19:47:18.603Z,54.95
2023-03-05T19:49:48.400Z,54.91
2023-03-05T19:52:18.484Z,54.56
2023-03-05T19:54:48.339Z,54.66
2023-03-05T19:57:18.162Z,54.91
2023-03-05T19:59:48.924Z,54.69
2023-03-05T20:02:23.566Z,54.91
2023-03-05T20:04:53.976Z,55.06
2023-03-05T20:07:23.957Z,54.81
2023-03-05T20:09:55.591Z,54.88
2023-03-05T20:12:26.164Z,55.00
2023-03-05T20:14:56.013Z,55.07
2023-03-05T20:17:25.980Z,55.08
2023-03-05T20:19:57.614Z,55.22
2023-03-05T20:22:27.641Z,55.25
2023-03-05T20:24:57.519Z,55.24
2023-03-05T20:27:27.369Z,55.00
2023-03-05T20:29:57.218Z,55.42
2023-03-05T20:32:27.113Z,55.27
2023-03-05T20:34:58.404Z,55.19
2023-03-05T20:37:56.218Z,55.10
2023-03-05T20:40:58.463Z,55.43
2023-03-05T20:43:34.119Z,55.37
2023-03-05T20:46:05.250Z,55.04
2023-03-05T20:48:36.659Z,55.16
2023-03-05T20:51:15.401Z,55.41
2023-03-05T20:53:45.787Z,55.42
2023-03-05T20:56:15.772Z,55.53
2023-03-05T20:58:45.780Z,55.58
2023-03-05T21:01:15.677Z,55.34
2023-03-05T21:03:45.498Z,55.46
2023-03-05T21:06:15.973Z,55.13
2023-03-05T21:08:46.006Z,55.41
2023-03-05T21:11:17.118Z,55.41
2023-03-05T21:13:46.878Z,55.16
2023-03-05T21:16:24.534Z,55.14
2023-03-05T21:18:55.136Z,55.11
2023-03-05T21:21:25.669Z,54.80
2023-03-05T21:23:55.845Z,54.73
2023-03-05T21:26:25.805Z,54.72
2023-03-05T21:28:55.741Z,54.95
2023-03-05T21:31:25.783Z,54.71
2023-03-05T21:33:55.694Z,55.01
2023-03-05T21:36:25.566Z,54.90
2023-03-05T21:38:55.586Z,54.79
2023-03-05T21:41:25.944Z,54.65
2023-03-05T21:43:56.398Z,54.82
2023-03-05T21:46:26.550Z,54.50
2023-03-05T21:48:56.368Z,54.42
2023-03-05T21:52:05.395Z,54.51
2023-03-05T21:54:35.429Z,54.70
2023-03-05T21:57:05.846Z,54.41
2023-03-05T21:59:36.397Z,54.65
2023-03-05T22:02:06.394Z,54.93
2023-03-05T22:04:36.224Z,54.88
2023-03-05T22:07:06.595Z,54.93
2023-03-05T22:09:36.898Z,54.81
2023-03-05T22:12:46.489Z,54.67
2023-03-05T22:15:25.322Z,54.66
2023-03-05T22:17:55.638Z,54.61
2023-03-05T22:20:25.809Z,54.63
2023-03-05T22:22:55.804Z,54.50
2023-03-05T22:25:26.212Z,54.44
2023-03-05T22:27:56.618Z,54.60
2023-03-05T22:30:26.717Z,54.56
2023-03-05T22:32:56.847Z,54.38
2023-03-05T22:35:27.342Z,54.48
2023-03-05T22:37:57.322Z,54.61
2023-03-05T22:40:27.395Z,54.32
2023-03-05T22:42:57.775Z,54.18
2023-03-05T22:45:27.786Z,54.30
2023-03-05T22:47:57.608Z,54.03
2023-03-05T22:50:28.059Z,54.27
2023-03-05T22:52:58.138Z,54.23
2023-03-05T22:55:28.040Z,54.45
2023-03-05T22:57:57.948Z,54.27
2023-03-05T23:00:28.948Z,54.37
2023-03-05T23:02:59.238Z,54.12
2023-03-05T23:05:29.704Z,54.44
2023-03-05T23:08:01.172Z,54.22
2023-03-05T23:10:31.513Z,54.19
2023-03-05T23:13:03.307Z,54.55
2023-03-05T23:15:37.018Z,54.25
2023-03-05T23:18:08.899Z,54.21
2023-03-05T23:20:40.045Z,54.01
2023-03-05T23:23:10.348Z,54.36
2023-03-05T23:25:41.417Z,54.04
2023-03-05T23:28:11.826Z,53.90
2023-03-05T23:30:41.939Z,54.12
2023-03-05T23:33:20.499Z,54.35
2023-03-05T23:36:02.739Z,54.88
2023-03-05T23:38:33.035Z,55.03
2023-03-05T23:41:05.028Z,55.20
2023-03-05T23:43:35.104Z,55.48
2023-03-05T23:46:05.070Z,55.33
2023-03-05T23:48:35.035Z,55.16
2023-03-05T23:51:09.246Z,55.21
2023-03-05T23:53:40.078Z,55.06
2023-03-05T23:56:14.479Z,55.23
2023-03-05T23:58:44.979Z,55.24
